Time;durP1;ratioP1;P1;durP2;ratioP2;P2;SDS_P1;SDS_P2;PMS_P1;PMS_P2;Temp;Humidity;BMP_temperature;BMP_pressure;BME280_temperature;BME280_humidity;BME280_pressure;Samples;Min_cycle;Max_cycle;Signal;HPM_P1;HPM_P2
2021/09/18 00:01:39;;;;;;;4.43;2.65;;;23.00;99.90;;;;;;5091891;28;20337;-65
2021/09/18 00:04:05;;;;;;;3.60;2.90;;;23.00;99.90;;;;;;5092174;28;20112;-63
2021/09/18 00:06:32;;;;;;;2.50;2.20;;;23.00;99.90;;;;;;5092197;28;20028;-64
2021/09/18 00:08:58;;;;;;;3.58;2.55;;;23.00;99.90;;;;;;5091794;28;20032;-64
2021/09/18 00:11:24;;;;;;;3.70;2.80;;;23.00;99.90;;;;;;5092057;28;20092;-64
2021/09/18 00:13:49;;;;;;;3.42;2.63;;;23.00;99.90;;;;;;5091630;28;20365;-64
2021/09/18 00:16:15;;;;;;;3.40;2.80;;;23.00;99.90;;;;;;5092165;28;20035;-64
2021/09/18 00:18:41;;;;;;;3.50;2.72;;;23.00;99.90;;;;;;5091701;28;20024;-63
2021/09/18 00:21:07;;;;;;;3.72;2.63;;;23.00;99.90;;;;;;5091752;28;20099;-64
2021/09/18 00:23:32;;;;;;;5.63;2.90;;;23.00;99.90;;;;;;5091633;28;20093;-64
2021/09/18 00:25:58;;;;;;;3.50;2.40;;;23.00;99.90;;;;;;5091544;28;20023;-64
2021/09/18 00:28:24;;;;;;;3.05;2.70;;;23.00;99.90;;;;;;5091808;28;20493;-64
2021/09/18 00:30:50;;;;;;;3.10;2.63;;;22.90;99.90;;;;;;5091407;28;20031;-65
2021/09/18 00:33:15;;;;;;;3.88;2.95;;;22.90;99.90;;;;;;5091738;28;20473;-64
2021/09/18 00:35:41;;;;;;;5.38;3.20;;;23.00;99.90;;;;;;5091466;28;20110;-64
2021/09/18 00:38:07;;;;;;;3.85;2.92;;;22.90;99.90;;;;;;5091803;28;20031;-64
2021/09/18 00:40:32;;;;;;;3.20;2.60;;;22.90;99.90;;;;;;5092097;28;20023;-65
2021/09/18 00:42:58;;;;;;;3.83;2.88;;;22.90;99.90;;;;;;5091322;28;20067;-63
2021/09/18 00:45:24;;;;;;;3.60;2.80;;;22.90;99.90;;;;;;5091578;28;20064;-64
2021/09/18 00:47:49;;;;;;;3.72;3.08;;;22.90;99.90;;;;;;5091259;28;20056;-62
2021/09/18 00:50:15;;;;;;;4.65;2.97;;;22.90;99.90;;;;;;5091492;28;20028;-64
2021/09/18 00:52:40;;;;;;;7.40;2.80;;;22.90;99.90;;;;;;5091300;28;20073;-64
2021/09/18 00:55:07;;;;;;;4.10;2.88;;;22.90;99.90;;;;;;5091488;28;20024;-63
2021/09/18 00:57:33;;;;;;;3.92;3.08;;;22.90;99.90;;;;;;5091733;28;20150;-64
2021/09/18 01:00:02;;;;;;;6.53;3.58;;;22.90;99.90;;;;;;5106724;28;20016;-64
2021/09/18 01:02:29;;;;;;;3.65;2.78;;;22.90;99.90;;;;;;5091263;28;20043;-64
2021/09/18 01:04:55;;;;;;;3.28;2.88;;;22.90;99.90;;;;;;5091108;28;20410;-63
2021/09/18 01:07:21;;;;;;;3.53;2.63;;;22.90;99.90;;;;;;5091381;28;20036;-63
2021/09/18 01:09:47;;;;;;;4.35;3.35;;;22.90;99.90;;;;;;5091095;28;20021;-63
2021/09/18 01:12:13;;;;;;;4.55;2.70;;;22.90;99.90;;;;;;5091289;28;20097;-63
2021/09/18 01:14:46;;;;;;;3.33;2.83;;;22.90;99.90;;;;;;5091056;28;20464;-63
2021/09/18 01:17:13;;;;;;;3.03;2.70;;;22.90;99.90;;;;;;5091202;28;20114;-64
2021/09/18 01:19:39;;;;;;;4.70;2.95;;;22.90;99.90;;;;;;5090998;28;20468;-63
2021/09/18 01:22:06;;;;;;;3.55;2.80;;;22.90;99.90;;;;;;5091487;28;20032;-67
2021/09/18 01:24:33;;;;;;;5.15;2.78;;;22.90;99.90;;;;;;5091520;28;20016;-64
2021/09/18 01:26:58;;;;;;;4.05;2.70;;;22.90;99.90;;;;;;5091073;28;20027;-64
2021/09/18 01:29:24;;;;;;;4.65;2.88;;;22.90;99.90;;;;;;5091170;28;20013;-63
2021/09/18 01:31:50;;;;;;;7.60;3.35;;;22.90;99.90;;;;;;5090981;28;20085;-64
2021/09/18 01:34:17;;;;;;;3.85;2.90;;;22.90;99.90;;;;;;5091221;28;20031;-64
2021/09/18 01:36:43;;;;;;;2.90;2.65;;;22.80;99.90;;;;;;5092625;28;20119;-64
2021/09/18 01:39:13;;;;;;;4.45;2.70;;;22.90;99.90;;;;;;5095026;28;20024;-64
2021/09/18 01:41:40;;;;;;;4.75;2.72;;;22.90;99.90;;;;;;5094657;28;20027;-64
2021/09/18 01:44:06;;;;;;;4.20;3.38;;;22.80;99.90;;;;;;5094924;28;20035;-61
2021/09/18 01:46:32;;;;;;;3.25;2.78;;;22.90;99.90;;;;;;5095191;28;20509;-63
2021/09/18 01:48:58;;;;;;;3.95;2.85;;;22.80;99.90;;;;;;5094571;28;20032;-64
2021/09/18 01:51:24;;;;;;;3.70;2.88;;;22.80;99.90;;;;;;5094664;28;20032;-64
2021/09/18 01:53:50;;;;;;;3.20;2.85;;;22.80;99.90;;;;;;5094470;28;20391;-64
2021/09/18 01:56:15;;;;;;;4.07;3.22;;;22.80;99.90;;;;;;5094706;28;20020;-64
2021/09/18 01:58:41;;;;;;;3.70;2.95;;;22.90;99.90;;;;;;5094516;28;20496;-63
2021/09/18 02:01:07;;;;;;;4.18;3.08;;;22.80;99.90;;;;;;5094554;28;20105;-64
2021/09/18 02:03:34;;;;;;;3.53;2.95;;;22.80;99.90;;;;;;5094927;28;20024;-64
2021/09/18 02:06:00;;;;;;;3.42;2.97;;;22.80;99.90;;;;;;5094283;28;20046;-64
2021/09/18 02:08:26;;;;;;;3.72;2.92;;;22.80;99.90;;;;;;5094365;28;20468;-64
2021/09/18 02:10:53;;;;;;;3.40;2.80;;;22.80;99.90;;;;;;5094137;28;20038;-63
2021/09/18 02:13:20;;;;;;;3.83;3.20;;;22.80;99.90;;;;;;5094532;28;20028;-64
2021/09/18 02:15:45;;;;;;;4.15;3.30;;;22.80;99.90;;;;;;5094103;28;20082;-64
2021/09/18 02:18:12;;;;;;;3.78;3.38;;;22.80;99.90;;;;;;5094367;28;20024;-63
2021/09/18 02:20:39;;;;;;;3.15;2.70;;;22.80;99.90;;;;;;5094107;28;20024;-64
2021/09/18 02:23:06;;;;;;;3.50;2.88;;;22.80;99.90;;;;;;5094379;28;20392;-64
2021/09/18 02:25:33;;;;;;;3.38;2.65;;;22.80;99.90;;;;;;5094397;28;20020;-64
2021/09/18 02:27:58;;;;;;;3.85;3.20;;;22.80;99.90;;;;;;5093853;28;20491;-63
2021/09/18 02:30:27;;;;;;;3.42;3.13;;;22.80;99.90;;;;;;5094136;28;20055;-64
2021/09/18 02:32:54;;;;;;;3.40;2.72;;;22.80;99.90;;;;;;5093582;28;20115;-64
2021/09/18 02:35:22;;;;;;;4.13;3.00;;;22.80;99.90;;;;;;5093971;28;20020;-63
2021/09/18 02:37:50;;;;;;;5.28;3.47;;;22.70;99.90;;;;;;5093627;28;20373;-64
2021/09/18 02:40:16;;;;;;;4.57;3.30;;;22.80;99.90;;;;;;5093799;28;20029;-64
2021/09/18 02:42:49;;;;;;;3.25;2.92;;;22.80;99.90;;;;;;5093412;28;20036;-64
2021/09/18 02:45:15;;;;;;;3.30;3.00;;;22.70;99.90;;;;;;5093866;28;20016;-62
2021/09/18 02:47:41;;;;;;;4.55;3.25;;;22.70;99.90;;;;;;5093110;28;20034;-63
2021/09/18 02:50:08;;;;;;;4.75;3.40;;;22.70;99.90;;;;;;5093513;28;20472;-63
2021/09/18 02:52:34;;;;;;;4.38;3.08;;;22.70;99.90;;;;;;5093905;28;20028;-63
2021/09/18 02:55:00;;;;;;;4.10;3.10;;;22.70;99.90;;;;;;5093386;28;20047;-63
2021/09/18 02:57:25;;;;;;;3.75;3.20;;;22.70;99.90;;;;;;5093734;28;20071;-64
2021/09/18 02:59:51;;;;;;;3.88;2.97;;;22.80;99.90;;;;;;5093252;28;20028;-64
2021/09/18 03:02:17;;;;;;;5.03;3.05;;;22.70;99.90;;;;;;5093393;28;20056;-63
2021/09/18 03:04:42;;;;;;;3.50;2.97;;;22.70;99.90;;;;;;5093155;28;20411;-64
2021/09/18 03:07:08;;;;;;;4.15;3.15;;;22.70;99.90;;;;;;5093338;28;20074;-63
2021/09/18 03:09:34;;;;;;;5.65;2.90;;;22.70;99.90;;;;;;5093737;28;20074;-63
2021/09/18 03:11:59;;;;;;;5.88;3.40;;;22.70;99.90;;;;;;5093007;28;20510;-64
2021/09/18 03:14:25;;;;;;;3.70;3.15;;;22.70;99.90;;;;;;5093140;28;20438;-63
2021/09/18 03:16:51;;;;;;;3.50;3.20;;;22.70;99.90;;;;;;5092858;28;20084;-63
2021/09/18 03:19:16;;;;;;;4.20;3.42;;;22.70;99.90;;;;;;5093274;28;20031;-63
2021/09/18 03:21:42;;;;;;;4.68;3.63;;;22.70;99.90;;;;;;5092735;28;20509;-64
2021/09/18 03:24:08;;;;;;;3.40;2.90;;;22.60;99.90;;;;;;5093071;28;20027;-64
2021/09/18 03:26:34;;;;;;;3.58;3.28;;;22.70;99.90;;;;;;5093394;28;20073;-65
2021/09/18 03:28:59;;;;;;;4.03;3.10;;;22.70;99.90;;;;;;5092672;28;20103;-62
2021/09/18 03:31:25;;;;;;;3.00;2.70;;;22.60;99.90;;;;;;5093166;28;20036;-63
2021/09/18 03:33:51;;;;;;;3.50;3.15;;;22.60;99.90;;;;;;5092697;28;20024;-64
2021/09/18 03:36:16;;;;;;;5.22;2.78;;;22.60;99.90;;;;;;5092773;28;20042;-63
2021/09/18 03:38:42;;;;;;;3.15;2.80;;;22.60;99.90;;;;;;5092477;28;20038;-64
2021/09/18 03:41:08;;;;;;;5.13;3.22;;;22.60;99.90;;;;;;5092622;28;20380;-64
2021/09/18 03:43:33;;;;;;;5.05;3.08;;;22.60;99.90;;;;;;5093001;28;20077;-64
2021/09/18 03:45:59;;;;;;;3.30;3.00;;;22.60;99.90;;;;;;5092346;28;20035;-65
2021/09/18 03:48:25;;;;;;;3.60;3.00;;;22.60;99.90;;;;;;5092619;28;20030;-63
2021/09/18 03:50:50;;;;;;;3.80;2.92;;;22.60;99.90;;;;;;5092116;28;20043;-62
2021/09/18 03:53:16;;;;;;;3.72;3.17;;;22.60;99.90;;;;;;5092508;28;20043;-62
2021/09/18 03:55:42;;;;;;;3.50;3.03;;;22.60;99.90;;;;;;5092290;28;20016;-62
2021/09/18 03:58:07;;;;;;;3.45;3.03;;;22.60;99.90;;;;;;5092230;28;20081;-64
2021/09/18 04:00:33;;;;;;;4.10;2.80;;;22.60;99.90;;;;;;5092223;28;20016;-63
2021/09/18 04:02:59;;;;;;;4.43;3.10;;;22.60;99.90;;;;;;5092022;28;20110;-64
2021/09/18 04:05:25;;;;;;;3.35;2.95;;;22.60;99.90;;;;;;5092299;28;20799;-63
2021/09/18 04:07:50;;;;;;;3.20;2.90;;;22.50;99.90;;;;;;5091959;28;20484;-63
2021/09/18 04:10:16;;;;;;;3.30;2.83;;;22.50;99.90;;;;;;5092223;28;20023;-64
2021/09/18 04:12:42;;;;;;;4.35;2.63;;;22.50;99.90;;;;;;5091834;28;20024;-63
2021/09/18 04:15:08;;;;;;;3.80;3.28;;;22.50;99.90;;;;;;5092146;28;20024;-64
2021/09/18 04:17:33;;;;;;;3.45;2.67;;;22.50;99.90;;;;;;5092407;28;20103;-64
2021/09/18 04:19:59;;;;;;;3.53;2.78;;;22.50;99.90;;;;;;5091779;28;20520;-64
2021/09/18 04:22:25;;;;;;;3.05;2.75;;;22.50;99.90;;;;;;5091949;28;21028;-64
2021/09/18 04:24:50;;;;;;;3.40;3.10;;;22.50;99.90;;;;;;5091741;28;20059;-64
2021/09/18 04:27:16;;;;;;;3.15;2.72;;;22.50;99.90;;;;;;5091883;28;20022;-63
2021/09/18 04:29:42;;;;;;;3.08;2.78;;;22.50;99.90;;;;;;5091639;28;20016;-62
2021/09/18 04:32:08;;;;;;;4.78;2.47;;;22.50;99.90;;;;;;5091831;28;20074;-63
2021/09/18 04:34:33;;;;;;;4.20;2.78;;;22.50;99.90;;;;;;5092167;28;20020;-63
2021/09/18 04:36:59;;;;;;;3.15;2.80;;;22.40;99.90;;;;;;5091431;28;20028;-64
2021/09/18 04:39:25;;;;;;;3.33;2.83;;;22.40;99.90;;;;;;5091658;28;20020;-63
2021/09/18 04:41:50;;;;;;;2.90;2.50;;;22.50;99.90;;;;;;5091538;28;20040;-64
2021/09/18 04:44:16;;;;;;;3.30;2.60;;;22.40;99.90;;;;;;5091826;28;20023;-64
2021/09/18 04:46:42;;;;;;;3.20;2.60;;;22.40;99.90;;;;;;5091377;28;20380;-63
2021/09/18 04:49:10;;;;;;;2.95;2.67;;;22.40;99.90;;;;;;5091623;28;20486;-63
2021/09/18 04:51:36;;;;;;;3.35;2.58;;;22.40;99.90;;;;;;5091572;28;20040;-60
2021/09/18 04:54:03;;;;;;;3.05;2.60;;;22.40;99.90;;;;;;5107993;28;20383;-64
2021/09/18 04:56:28;;;;;;;2.95;2.65;;;22.40;99.90;;;;;;5091545;28;20031;-64
2021/09/18 04:58:54;;;;;;;3.33;2.60;;;22.40;99.90;;;;;;5091555;28;20020;-64
2021/09/18 05:01:20;;;;;;;3.00;2.65;;;22.40;99.90;;;;;;5091382;28;20028;-64
2021/09/18 05:03:45;;;;;;;4.25;2.70;;;22.30;99.90;;;;;;5091174;28;20108;-64
2021/09/18 05:06:11;;;;;;;3.30;2.78;;;22.40;99.90;;;;;;5091512;28;20547;-64
2021/09/18 05:08:37;;;;;;;3.83;2.63;;;22.40;99.90;;;;;;5091211;28;20028;-63
2021/09/18 05:11:03;;;;;;;3.35;2.70;;;22.30;99.90;;;;;;5094225;28;20094;-62
2021/09/18 05:13:29;;;;;;;2.90;2.45;;;22.30;99.90;;;;;;5095640;28;20107;-64
2021/09/18 05:15:54;;;;;;;3.20;2.50;;;22.40;99.90;;;;;;5077173;28;20035;-64
2021/09/18 05:18:20;;;;;;;2.97;2.67;;;22.30;99.90;;;;;;5095495;28;20024;-63
2021/09/18 05:20:46;;;;;;;3.25;2.53;;;22.30;99.90;;;;;;5095207;28;20395;-63
2021/09/18 05:23:11;;;;;;;2.85;2.47;;;22.30;99.90;;;;;;5095383;28;20111;-63
2021/09/18 05:25:37;;;;;;;3.78;2.42;;;22.30;99.90;;;;;;5095117;28;20376;-63
2021/09/18 05:28:03;;;;;;;3.10;2.58;;;22.30;99.90;;;;;;5095620;28;20533;-64
2021/09/18 05:30:28;;;;;;;2.95;2.50;;;22.30;99.90;;;;;;5094983;28;20027;-64
2021/09/18 05:32:54;;;;;;;2.63;2.42;;;22.20;99.90;;;;;;5094873;28;20103;-63
2021/09/18 05:35:20;;;;;;;3.92;2.80;;;22.30;99.90;;;;;;5095101;28;20077;-62
2021/09/18 05:37:45;;;;;;;2.95;2.65;;;22.20;99.90;;;;;;5094928;28;20020;-64
2021/09/18 05:40:11;;;;;;;2.95;2.53;;;22.20;99.90;;;;;;5094940;28;20031;-64
2021/09/18 05:42:37;;;;;;;3.47;2.58;;;22.20;99.90;;;;;;5094675;28;20032;-64
2021/09/18 05:45:05;;;;;;;3.42;2.70;;;22.20;99.90;;;;;;5095313;28;20016;-64
2021/09/18 05:47:31;;;;;;;2.88;2.30;;;22.20;99.90;;;;;;5095205;28;20039;-63
2021/09/18 05:49:56;;;;;;;2.60;2.35;;;22.20;99.90;;;;;;5094425;28;20024;-64
2021/09/18 05:52:22;;;;;;;2.55;2.28;;;22.20;99.90;;;;;;5094930;28;20035;-64
2021/09/18 05:54:48;;;;;;;2.63;2.40;;;22.20;99.90;;;;;;5094507;28;20052;-64
2021/09/18 05:57:13;;;;;;;3.63;2.20;;;22.20;99.90;;;;;;5110385;28;20391;-63
2021/09/18 05:59:39;;;;;;;2.78;2.20;;;22.20;99.90;;;;;;5110184;28;20024;-64
2021/09/18 06:02:05;;;;;;;2.92;2.22;;;22.20;99.90;;;;;;5094976;28;20380;-64
2021/09/18 06:04:30;;;;;;;3.15;2.35;;;22.20;99.90;;;;;;5094852;28;20484;-63
2021/09/18 06:06:56;;;;;;;3.05;2.50;;;22.10;99.90;;;;;;5094447;28;20472;-64
2021/09/18 06:09:22;;;;;;;4.07;2.80;;;22.10;99.90;;;;;;5076462;28;20035;-64
2021/09/18 06:11:47;;;;;;;2.63;2.30;;;22.10;99.90;;;;;;5094276;28;20020;-64
2021/09/18 06:14:13;;;;;;;2.40;2.20;;;22.10;99.90;;;;;;5094598;28;20028;-63
2021/09/18 06:16:38;;;;;;;2.97;2.45;;;22.10;99.90;;;;;;5094193;28;20114;-64
2021/09/18 06:19:04;;;;;;;3.65;2.25;;;22.10;99.90;;;;;;5094546;28;20365;-61
2021/09/18 06:21:30;;;;;;;2.50;2.17;;;22.10;99.90;;;;;;5093589;28;20487;-65
2021/09/18 06:23:55;;;;;;;3.35;2.30;;;22.10;99.90;;;;;;5093980;28;20040;-64
2021/09/18 06:26:21;;;;;;;4.50;2.80;;;22.10;99.90;;;;;;5094291;28;20027;-63
2021/09/18 06:28:47;;;;;;;3.17;2.28;;;22.10;99.90;;;;;;5094098;28;20484;-64
2021/09/18 06:31:12;;;;;;;3.03;2.22;;;22.10;99.90;;;;;;5093606;28;20107;-64
2021/09/18 06:33:38;;;;;;;5.05;2.40;;;22.10;99.90;;;;;;5093944;28;20031;-64
2021/09/18 06:36:04;;;;;;;3.42;2.58;;;22.10;99.90;;;;;;5094467;28;20113;-63
2021/09/18 06:38:30;;;;;;;2.58;2.00;;;22.10;99.90;;;;;;5094100;28;20095;-63
2021/09/18 06:40:58;;;;;;;2.90;2.33;;;22.10;99.90;;;;;;5093870;28;20545;-64
2021/09/18 06:43:24;;;;;;;3.70;2.50;;;22.00;99.90;;;;;;5093930;28;20036;-64
2021/09/18 06:45:50;;;;;;;4.25;2.38;;;22.00;99.90;;;;;;5093442;28;20563;-62
2021/09/18 06:48:16;;;;;;;5.43;2.80;;;22.00;99.90;;;;;;5093687;28;20107;-63
2021/09/18 06:50:42;;;;;;;9.18;3.70;;;22.00;99.90;;;;;;5093544;28;20047;-63
2021/09/18 06:53:08;;;;;;;7.82;2.95;;;22.00;99.90;;;;;;5093815;28;20572;-63
2021/09/18 06:55:35;;;;;;;5.32;2.80;;;22.00;99.90;;;;;;5094076;28;20112;-62
2021/09/18 06:58:01;;;;;;;6.22;2.72;;;22.00;99.90;;;;;;5079987;28;20029;-63
2021/09/18 07:00:28;;;;;;;5.20;2.97;;;22.00;99.90;;;;;;5073198;28;20556;-64
2021/09/18 07:02:54;;;;;;;5.05;2.83;;;22.00;99.90;;;;;;5073167;28;20079;-63
2021/09/18 07:05:20;;;;;;;3.65;2.53;;;22.00;99.90;;;;;;5073512;28;20031;-64
2021/09/18 07:07:46;;;;;;;4.88;2.60;;;22.00;99.90;;;;;;5073194;28;20020;-64
2021/09/18 07:10:12;;;;;;;6.15;2.53;;;21.90;99.90;;;;;;5073254;28;20070;-64
2021/09/18 07:12:39;;;;;;;10.88;6.18;;;21.90;99.90;;;;;;5072870;28;20095;-65
2021/09/18 07:15:06;;;;;;;9.98;7.35;;;21.90;99.90;;;;;;5073355;28;20065;-64
2021/09/18 07:17:32;;;;;;;10.38;8.02;;;21.90;99.90;;;;;;5073297;28;20039;-65
2021/09/18 07:19:58;;;;;;;10.10;8.27;;;21.90;99.90;;;;;;5055036;28;20024;-64
2021/09/18 07:22:27;;;;;;;10.43;8.48;;;21.80;99.90;;;;;;5072802;28;20035;-65
2021/09/18 07:24:53;;;;;;;10.63;7.32;;;21.80;99.90;;;;;;5072649;28;20036;-64
2021/09/18 07:27:19;;;;;;;11.40;8.77;;;21.80;99.90;;;;;;5072944;28;20047;-64
2021/09/18 07:29:45;;;;;;;9.38;6.82;;;21.70;99.90;;;;;;5072505;28;20472;-63
2021/09/18 07:32:12;;;;;;;9.15;7.95;;;21.70;99.90;;;;;;5072746;28;20495;-63
2021/09/18 07:34:37;;;;;;;10.48;8.55;;;21.70;99.90;;;;;;5071264;28;20078;-64
2021/09/18 07:37:03;;;;;;;9.98;8.02;;;21.70;99.90;;;;;;5072997;28;20060;-65
2021/09/18 07:39:29;;;;;;;9.38;7.22;;;21.60;99.90;;;;;;5072661;28;20020;-64
2021/09/18 07:41:55;;;;;;;10.60;7.68;;;21.60;99.90;;;;;;5072215;28;20074;-64
2021/09/18 07:44:21;;;;;;;9.05;7.38;;;21.60;99.90;;;;;;5072518;28;20051;-64
2021/09/18 07:46:47;;;;;;;10.45;7.63;;;21.50;99.90;;;;;;5072245;28;20021;-64
2021/09/18 07:49:13;;;;;;;10.85;7.57;;;21.50;99.90;;;;;;5072529;28;20036;-64
2021/09/18 07:51:39;;;;;;;10.23;7.85;;;21.50;99.90;;;;;;5072014;28;20032;-64
2021/09/18 07:54:04;;;;;;;8.10;7.00;;;21.40;99.90;;;;;;5072576;28;20032;-64
2021/09/18 07:56:30;;;;;;;9.13;7.22;;;21.40;99.90;;;;;;5072232;28;20034;-64
2021/09/18 07:58:57;;;;;;;8.73;7.35;;;21.40;99.90;;;;;;5072035;28;20044;-64
2021/09/18 08:01:24;;;;;;;10.30;6.82;;;21.30;99.90;;;;;;5071979;28;20033;-64
2021/09/18 08:03:51;;;;;;;8.05;7.13;;;21.30;99.90;;;;;;5072034;28;20473;-62
2021/09/18 08:06:17;;;;;;;10.57;7.82;;;21.30;99.90;;;;;;5072289;28;20028;-64
2021/09/18 08:08:42;;;;;;;9.95;7.20;;;21.20;99.90;;;;;;5071874;28;20473;-64
2021/09/18 08:11:08;;;;;;;8.77;6.97;;;21.20;99.90;;;;;;5072120;28;20080;-63
2021/09/18 08:13:33;;;;;;;9.43;7.20;;;21.20;99.90;;;;;;5072294;28;20033;-63
2021/09/18 08:15:59;;;;;;;8.52;6.72;;;21.20;99.90;;;;;;5071834;28;20020;-62
2021/09/18 08:18:25;;;;;;;8.43;6.88;;;21.20;99.90;;;;;;5071809;28;20351;-60
2021/09/18 08:20:50;;;;;;;8.75;7.30;;;21.10;99.90;;;;;;5091261;28;20388;-61
2021/09/18 08:23:16;;;;;;;10.15;6.90;;;21.10;99.90;;;;;;5092019;28;20036;-62
2021/09/18 08:25:41;;;;;;;9.70;6.18;;;21.10;99.90;;;;;;5092009;28;20099;-60
2021/09/18 08:28:07;;;;;;;11.88;7.40;;;21.10;99.90;;;;;;5092009;28;20032;-64
2021/09/18 08:30:35;;;;;;;9.27;7.72;;;21.10;99.90;;;;;;5092294;28;20033;-62
2021/09/18 08:33:00;;;;;;;10.32;7.72;;;21.00;99.90;;;;;;5091594;28;20488;-63
2021/09/18 08:35:26;;;;;;;8.20;6.90;;;21.10;99.90;;;;;;5091938;28;20028;-65
2021/09/18 08:37:52;;;;;;;12.02;7.38;;;21.00;99.90;;;;;;5091744;28;20024;-63
2021/09/18 08:40:17;;;;;;;10.05;7.55;;;21.00;99.90;;;;;;5091914;28;20369;-62
2021/09/18 08:42:43;;;;;;;10.57;6.72;;;21.00;99.90;;;;;;5089414;28;20032;-62
2021/09/18 08:45:12;;;;;;;9.30;6.95;;;21.00;99.90;;;;;;5091475;28;20020;-63
2021/09/18 08:47:41;;;;;;;8.85;6.75;;;21.00;99.90;;;;;;5094300;28;20024;-62
2021/09/18 08:50:08;;;;;;;9.23;6.47;;;21.00;99.90;;;;;;5091488;28;20035;-64
2021/09/18 08:52:34;;;;;;;7.60;6.80;;;21.00;99.90;;;;;;5091896;28;20414;-67
2021/09/18 08:55:00;;;;;;;10.25;7.28;;;21.00;99.90;;;;;;5091258;28;20019;-63
2021/09/18 08:57:25;;;;;;;8.68;6.72;;;21.00;99.90;;;;;;5086818;28;20916;-61
2021/09/18 08:59:51;;;;;;;11.82;6.45;;;21.00;99.90;;;;;;5091412;28;20016;-62
2021/09/18 09:02:23;;;;;;;52.28;10.13;;;21.00;99.90;;;;;;5091559;28;20040;-67
2021/09/18 09:05:02;;;;;;;18.40;7.22;;;21.00;99.90;;;;;;5088051;28;20024;-66
2021/09/18 09:07:27;;;;;;;9.52;6.22;;;21.00;99.90;;;;;;5071465;28;20024;-70
2021/09/18 09:09:59;;;;;;;8.75;7.20;;;21.00;99.90;;;;;;5078263;28;20039;-72
2021/09/18 09:12:32;;;;;;;25.00;8.05;;;21.00;99.90;;;;;;5091641;28;20103;-71
2021/09/18 09:15:00;;;;;;;11.63;6.70;;;21.00;99.90;;;;;;5091269;28;20472;-77
2021/09/18 09:17:32;;;;;;;10.15;6.55;;;21.00;99.90;;;;;;5091560;28;20115;-72
2021/09/18 09:19:58;;;;;;;10.38;7.65;;;21.00;99.90;;;;;;5091340;28;20028;-67
2021/09/18 09:22:47;;;;;;;11.13;7.60;;;21.00;99.90;;;;;;5091302;28;20043;-70
2021/09/18 09:25:35;;;;;;;12.73;7.35;;;21.00;99.90;;;;;;5091297;28;20082;-73
2021/09/18 09:28:48;;;;;;;10.05;7.25;;;21.00;99.90;;;;;;5091259;28;20031;-71
2021/09/18 09:31:14;;;;;;;8.80;6.88;;;21.00;99.90;;;;;;5078013;28;20111;-70
2021/09/18 09:34:06;;;;;;;9.35;6.72;;;21.10;99.90;;;;;;5091051;28;20100;-69
2021/09/18 09:36:41;;;;;;;7.63;6.05;;;21.10;99.90;;;;;;5091806;28;20073;-69
2021/09/18 09:39:10;;;;;;;10.32;5.95;;;21.10;99.90;;;;;;5091423;28;20043;-66
2021/09/18 09:41:40;;;;;;;7.70;5.63;;;21.20;99.90;;;;;;5090609;28;20038;-67
2021/09/18 09:44:16;;;;;;;8.98;5.47;;;21.20;99.90;;;;;;5091182;28;20028;-67
2021/09/18 09:46:57;;;;;;;11.48;5.20;;;21.30;99.90;;;;;;5090658;28;20077;-69
2021/09/18 09:49:22;;;;;;;7.43;5.03;;;21.20;99.90;;;;;;5091196;28;20019;-69
2021/09/18 09:51:48;;;;;;;8.73;5.80;;;21.30;99.90;;;;;;5090409;28;20036;-69
2021/09/18 09:54:35;;;;;;;6.95;5.25;;;21.30;99.90;;;;;;5091162;28;20103;-69
2021/09/18 09:57:11;;;;;;;7.00;5.13;;;21.30;99.90;;;;;;5091929;28;20035;-70
2021/09/18 09:59:38;;;;;;;10.15;5.75;;;21.30;99.90;;;;;;5092041;28;20016;-68
2021/09/18 10:02:06;;;;;;;7.18;5.05;;;21.40;99.90;;;;;;5082885;28;20036;-69
2021/09/18 10:04:32;;;;;;;7.50;5.07;;;21.40;99.90;;;;;;5078659;28;20020;-72
2021/09/18 10:06:58;;;;;;;5.80;5.10;;;21.40;99.90;;;;;;5085087;28;20108;-66
2021/09/18 10:09:24;;;;;;;8.52;5.13;;;21.40;99.90;;;;;;5074413;28;20028;-66
2021/09/18 10:11:53;;;;;;;7.40;4.80;;;21.40;99.90;;;;;;5093892;28;20031;-64
2021/09/18 10:14:24;;;;;;;8.15;5.03;;;21.50;99.90;;;;;;5094337;28;20480;-65
2021/09/18 10:16:53;;;;;;;7.13;4.97;;;21.50;99.90;;;;;;5094293;28;20464;-66
2021/09/18 10:19:31;;;;;;;5.20;4.22;;;21.50;99.90;;;;;;5094523;28;20039;-66
2021/09/18 10:24:42;;;;;;;6.53;4.32;;;21.50;99.90;;;;;;5089370;28;20031;-65
2021/09/18 10:27:23;;;;;;;8.70;4.13;;;21.50;99.90;;;;;;5075568;28;20020;-66
2021/09/18 10:29:50;;;;;;;6.55;4.18;;;21.50;99.90;;;;;;5084524;28;20414;-66
2021/09/18 10:32:17;;;;;;;7.15;4.32;;;21.60;99.90;;;;;;5075728;28;20028;-66
2021/09/18 10:34:43;;;;;;;8.48;4.38;;;21.60;99.90;;;;;;5073030;28;20055;-65
2021/09/18 10:37:29;;;;;;;6.97;4.30;;;21.60;99.90;;;;;;5073912;28;20056;-66
2021/09/18 10:40:10;;;;;;;10.25;4.25;;;21.60;99.90;;;;;;5095789;28;20024;-65
2021/09/18 10:42:39;;;;;;;10.27;4.22;;;21.60;99.90;;;;;;5091799;28;20118;-65
2021/09/18 10:45:06;;;;;;;9.57;4.82;;;21.60;99.90;;;;;;5092212;28;20012;-66
2021/09/18 10:47:41;;;;;;;6.10;3.95;;;21.70;99.90;;;;;;5092002;28;20023;-66
2021/09/18 10:50:27;;;;;;;7.32;4.38;;;21.60;99.90;;;;;;5093484;28;20024;-65
2021/09/18 10:53:01;;;;;;;6.85;3.78;;;21.70;99.90;;;;;;5093010;28;20028;-66
2021/09/18 10:55:28;;;;;;;9.15;3.88;;;21.70;99.90;;;;;;5093802;28;20436;-65
2021/09/18 10:57:56;;;;;;;7.07;3.72;;;21.70;99.90;;;;;;5093514;28;20028;-65
2021/09/18 11:00:25;;;;;;;8.70;4.13;;;21.70;99.90;;;;;;5101819;28;20081;-66
2021/09/18 11:03:02;;;;;;;5.35;3.42;;;21.80;99.90;;;;;;5099372;28;20052;-65
2021/09/18 11:05:28;;;;;;;6.30;3.88;;;21.70;99.90;;;;;;5093486;28;20536;-66
2021/09/18 11:07:58;;;;;;;5.68;3.70;;;21.70;99.90;;;;;;5092914;28;20059;-66
2021/09/18 11:10:24;;;;;;;6.22;4.13;;;21.80;99.90;;;;;;5085834;28;20037;-65
2021/09/18 11:13:07;;;;;;;6.30;3.72;;;21.80;99.90;;;;;;5072977;28;20108;-63
2021/09/18 11:15:59;;;;;;;6.32;3.63;;;21.80;99.90;;;;;;5073491;28;20074;-64
2021/09/18 11:18:37;;;;;;;6.22;3.75;;;21.80;99.90;;;;;;5072771;28;20036;-64
2021/09/18 11:21:28;;;;;;;4.75;3.10;;;21.80;99.90;;;;;;5073091;28;20449;-64
2021/09/18 11:24:00;;;;;;;5.15;3.63;;;21.80;99.90;;;;;;5112795;28;20039;-64
2021/09/18 11:26:32;;;;;;;4.57;2.67;;;21.90;99.90;;;;;;5113557;28;20447;-64
2021/09/18 11:29:28;;;;;;;5.27;3.03;;;21.90;99.90;;;;;;5111109;28;20483;-64
2021/09/18 11:31:58;;;;;;;4.28;2.97;;;21.90;99.90;;;;;;5061740;28;20094;-64
2021/09/18 11:34:54;;;;;;;4.70;3.03;;;21.90;99.90;;;;;;5072872;28;20473;-64
2021/09/18 11:37:25;;;;;;;4.85;2.72;;;21.90;99.90;;;;;;5071365;28;20078;-63
2021/09/18 11:39:54;;;;;;;3.80;2.90;;;21.90;99.90;;;;;;5097737;28;20034;-63
2021/09/18 11:42:24;;;;;;;3.72;2.72;;;21.90;99.90;;;;;;5095153;28;20063;-63
2021/09/18 11:44:54;;;;;;;3.90;2.67;;;21.90;99.90;;;;;;5092456;28;20532;-63
2021/09/18 11:47:26;;;;;;;3.58;2.53;;;21.90;99.90;;;;;;5092850;28;20039;-64
2021/09/18 11:49:52;;;;;;;3.45;2.63;;;22.00;99.90;;;;;;5090929;28;20024;-62
2021/09/18 11:52:18;;;;;;;4.20;2.83;;;22.00;99.90;;;;;;5092576;28;20021;-64
2021/09/18 11:54:44;;;;;;;4.00;2.40;;;22.00;99.90;;;;;;5092971;28;20029;-63
2021/09/18 11:57:11;;;;;;;3.92;2.72;;;22.00;99.90;;;;;;5092357;28;20020;-64
2021/09/18 11:59:37;;;;;;;4.03;2.38;;;22.00;99.90;;;;;;5082272;28;20032;-64
2021/09/18 12:02:03;;;;;;;3.00;2.30;;;22.00;99.90;;;;;;5092348;28;20135;-64
2021/09/18 12:04:45;;;;;;;3.35;2.40;;;22.10;99.90;;;;;;5092363;28;20110;-64
2021/09/18 12:07:13;;;;;;;3.80;2.13;;;22.10;99.90;;;;;;5087948;28;20035;-66
2021/09/18 12:09:39;;;;;;;5.05;2.60;;;22.10;99.90;;;;;;5079473;28;20684;-63
2021/09/18 12:12:06;;;;;;;2.70;2.33;;;22.10;99.90;;;;;;5110063;28;20032;-64
2021/09/18 12:14:33;;;;;;;2.83;2.30;;;22.10;99.90;;;;;;5094100;28;20031;-65
2021/09/18 12:17:15;;;;;;;2.92;2.28;;;22.10;99.90;;;;;;5089716;28;20085;-64
2021/09/18 12:19:41;;;;;;;2.65;1.95;;;22.10;99.90;;;;;;5088490;28;20013;-64
2021/09/18 12:22:08;;;;;;;3.95;2.40;;;22.20;99.90;;;;;;5086399;28;20043;-65
2021/09/18 12:24:37;;;;;;;5.82;2.63;;;22.20;99.90;;;;;;5085328;28;20084;-65
2021/09/18 12:27:22;;;;;;;5.38;2.10;;;22.20;99.90;;;;;;5092309;28;20024;-65
2021/09/18 12:30:10;;;;;;;2.83;2.17;;;22.20;99.90;;;;;;5080730;28;20016;-64
2021/09/18 12:32:37;;;;;;;3.95;2.17;;;22.20;99.90;;;;;;5086455;28;20042;-64
2021/09/18 12:35:08;;;;;;;2.38;1.90;;;22.20;99.90;;;;;;5112568;28;20016;-65
2021/09/18 12:37:37;;;;;;;3.25;2.20;;;22.20;99.90;;;;;;5090829;28;20024;-65
2021/09/18 12:40:09;;;;;;;3.38;2.10;;;22.20;99.90;;;;;;5090054;28;20111;-64
2021/09/18 12:42:34;;;;;;;3.20;2.00;;;22.30;99.90;;;;;;5090841;28;20479;-68
2021/09/18 12:45:00;;;;;;;1.90;1.60;;;22.30;99.90;;;;;;5089445;28;20255;-66
2021/09/18 12:47:26;;;;;;;2.88;1.85;;;22.30;99.90;;;;;;5089596;28;20102;-65
2021/09/18 12:49:51;;;;;;;2.38;1.52;;;22.30;99.90;;;;;;5086117;28;20031;-67
2021/09/18 12:52:28;;;;;;;2.38;1.58;;;22.30;99.90;;;;;;5088786;28;20036;-64